Siem Pilot — LCPF — position and weather

sailwx.info

Track history (hours):
 
Tides and Currents Weather Stations Pressure Air Temp Water Temp Dewpoint Dewpoint Depression Visibility Wind Speed Wind Dir Waves Ship Positions

Siem Pilot

Last reported at 2015-Jan-28 05:32 UTC. Time now 2015-Jan-28 06:40 UTC.
Position N 58°58' E 005°44'.

Length 88 m; draft 5.9 m.

Type: Cargo ship. MMSI: 257458000.

Date/timePositionNaut miles runAvg speedWind from/ knotsBaromVisibWave heightAir tempDewpointWater temp
2015-Jan-28 05:32N 58°58' E 005°44'0 0.0
2015-Jan-28 04:29N 58°58' E 005°44'0 0.0
2015-Jan-28 03:32N 58°58' E 005°44'0 0.0
2015-Jan-28 02:32N 58°58' E 005°44'0 0.0
2015-Jan-28 01:32N 58°58' E 005°44'0 0.0
2015-Jan-28 00:32N 58°58' E 005°44'0 0.0
2015-Jan-27 23:32N 58°58' E 005°44'0 0.0
2015-Jan-27 22:32N 58°58' E 005°44'0 0.0
2015-Jan-27 21:32N 58°58' E 005°44'0 0.0
2015-Jan-27 20:32N 58°58' E 005°44'0 0.0
2015-Jan-27 19:32N 58°58' E 005°44'0 0.0
2015-Jan-27 18:32N 58°58' E 005°44'0 0.0
2015-Jan-27 17:32N 58°58' E 005°44'0 0.0
2015-Jan-27 16:32N 58°58' E 005°44'0 0.0
2015-Jan-27 15:34N 58°58' E 005°44'6 6.3
2015-Jan-27 14:33N 59°03' E 005°35'4 3.9
2015-Jan-27 13:34N 59°01' E 005°42'1 0.5
2015-Jan-27 12:34N 59°02' E 005°41'0 0.0
2015-Jan-27 11:34N 59°02' E 005°41'0 0.0
2015-Jan-27 10:34N 59°02' E 005°41'0 0.0
2015-Jan-27 09:34N 59°02' E 005°41'0 0.0
2015-Jan-27 08:34N 59°02' E 005°41'0 0.0
2015-Jan-27 07:34N 59°02' E 005°41'0 0.0
2015-Jan-27 06:34N 59°02' E 005°41'0 0.0
2015-Jan-27 05:34N 59°02' E 005°41'0 0.0
2015-Jan-27 04:34N 59°02' E 005°41'0 0.0
2015-Jan-27 03:34N 59°02' E 005°41'0 0.0
2015-Jan-27 02:31N 59°02' E 005°41'0 0.0
2015-Jan-27 01:34N 59°02' E 005°41'0 0.0
2015-Jan-27 00:34N 59°02' E 005°41'0 0.0
2015-Jan-26 23:34N 59°02' E 005°41'1 1.0
2015-Jan-26 22:33N 59°01' E 005°40'7 7.2
2015-Jan-26 21:34N 59°06' E 005°30'6 6.3
2015-Jan-26 20:33N 59°04' E 005°19'6 6.0
2015-Jan-26 19:31N 59°01' E 005°08'  
2015-Jan-21 22:43N 57°13' W 001°60'0 0.0
2015-Jan-21 22:25N 57°13' W 001°60'0 0.0
2015-Jan-21 01:19N 57°13' W 001°60'0 0.0
2015-Jan-21 00:25N 57°13' W 001°60'0 0.0
2015-Jan-20 10:25N 57°13' W 001°60'0 0.0
2015-Jan-20 02:19N 57°13' W 001°60'0 0.0
2015-Jan-19 23:07N 57°13' W 001°60'0 0.0
2015-Jan-19 22:25N 57°13' W 001°60'0 0.0
2015-Jan-19 21:19N 57°13' W 001°60'0 0.0
2015-Jan-19 20:25N 57°13' W 001°60'0 0.0
2015-Jan-19 14:07N 57°13' W 001°60'0 0.0
2015-Jan-19 13:31N 57°13' W 001°60'0 0.0
2015-Jan-19 12:31N 57°13' W 001°60'0 0.0
2015-Jan-19 10:19N 57°13' W 001°60'0 0.0
2015-Jan-19 03:16N 57°13' W 001°60'0 0.0
2015-Jan-19 00:19N 57°13' W 001°60'0 0.0
2015-Jan-18 22:22N 57°13' W 001°60'0 0.0
2015-Jan-18 14:31N 57°13' W 001°59'0 0.0
2015-Jan-18 13:07N 57°13' W 001°60'0 0.0
2015-Jan-18 11:31N 57°13' W 001°60'0 0.0
2015-Jan-18 10:31N 57°13' W 001°60'0 0.0
2015-Jan-18 09:31N 57°13' W 001°60'0 0.0
2015-Jan-18 08:19N 57°13' W 001°60'0 0.0
2015-Jan-18 07:31N 57°13' W 001°60'  
Track history (hours):
 
Tides and Currents Weather Stations Pressure Air Temp Water Temp Dewpoint Dewpoint Depression Visibility Wind Speed Wind Dir Waves Ship Positions

Siem Pilot

Last reported at 2015-Jan-28 05:32 UTC. Time now 2015-Jan-28 06:40 UTC.
Position N 58°58' E 005°44'.

Length 88 m; draft 5.9 m.

Type: Cargo ship. MMSI: 257458000.

Date/timePositionNaut miles runAvg speedWind from/ knotsBaromVisibWave heightAir tempDewpointWater temp
2015-Jan-28 05:32N 58°58' E 005°44'0 0.0
2015-Jan-28 04:29N 58°58' E 005°44'0 0.0
2015-Jan-28 03:32N 58°58' E 005°44'0 0.0
2015-Jan-28 02:32N 58°58' E 005°44'0 0.0
2015-Jan-28 01:32N 58°58' E 005°44'0 0.0
2015-Jan-28 00:32N 58°58' E 005°44'0 0.0
2015-Jan-27 23:32N 58°58' E 005°44'0 0.0
2015-Jan-27 22:32N 58°58' E 005°44'0 0.0
2015-Jan-27 21:32N 58°58' E 005°44'0 0.0
2015-Jan-27 20:32N 58°58' E 005°44'0 0.0
2015-Jan-27 19:32N 58°58' E 005°44'0 0.0
2015-Jan-27 18:32N 58°58' E 005°44'0 0.0
2015-Jan-27 17:32N 58°58' E 005°44'0 0.0
2015-Jan-27 16:32N 58°58' E 005°44'0 0.0
2015-Jan-27 15:34N 58°58' E 005°44'6 6.3
2015-Jan-27 14:33N 59°03' E 005°35'4 3.9
2015-Jan-27 13:34N 59°01' E 005°42'1 0.5
2015-Jan-27 12:34N 59°02' E 005°41'0 0.0
2015-Jan-27 11:34N 59°02' E 005°41'0 0.0
2015-Jan-27 10:34N 59°02' E 005°41'0 0.0
2015-Jan-27 09:34N 59°02' E 005°41'0 0.0
2015-Jan-27 08:34N 59°02' E 005°41'0 0.0
2015-Jan-27 07:34N 59°02' E 005°41'0 0.0
2015-Jan-27 06:34N 59°02' E 005°41'0 0.0
2015-Jan-27 05:34N 59°02' E 005°41'0 0.0
2015-Jan-27 04:34N 59°02' E 005°41'0 0.0
2015-Jan-27 03:34N 59°02' E 005°41'0 0.0
2015-Jan-27 02:31N 59°02' E 005°41'0 0.0
2015-Jan-27 01:34N 59°02' E 005°41'0 0.0
2015-Jan-27 00:34N 59°02' E 005°41'0 0.0
2015-Jan-26 23:34N 59°02' E 005°41'1 1.0
2015-Jan-26 22:33N 59°01' E 005°40'7 7.2
2015-Jan-26 21:34N 59°06' E 005°30'6 6.3
2015-Jan-26 20:33N 59°04' E 005°19'6 6.0
2015-Jan-26 19:31N 59°01' E 005°08'  
2015-Jan-21 22:43N 57°13' W 001°60'0 0.0
2015-Jan-21 22:25N 57°13' W 001°60'0 0.0
2015-Jan-21 01:19N 57°13' W 001°60'0 0.0
2015-Jan-21 00:25N 57°13' W 001°60'0 0.0
2015-Jan-20 10:25N 57°13' W 001°60'0 0.0
2015-Jan-20 02:19N 57°13' W 001°60'0 0.0
2015-Jan-19 23:07N 57°13' W 001°60'0 0.0
2015-Jan-19 22:25N 57°13' W 001°60'0 0.0
2015-Jan-19 21:19N 57°13' W 001°60'0 0.0
2015-Jan-19 20:25N 57°13' W 001°60'0 0.0
2015-Jan-19 14:07N 57°13' W 001°60'0 0.0
2015-Jan-19 13:31N 57°13' W 001°60'0 0.0
2015-Jan-19 12:31N 57°13' W 001°60'0 0.0
2015-Jan-19 10:19N 57°13' W 001°60'0 0.0
2015-Jan-19 03:16N 57°13' W 001°60'0 0.0
2015-Jan-19 00:19N 57°13' W 001°60'0 0.0
2015-Jan-18 22:22N 57°13' W 001°60'0 0.0
2015-Jan-18 14:31N 57°13' W 001°59'0 0.0
2015-Jan-18 13:07N 57°13' W 001°60'0 0.0
2015-Jan-18 11:31N 57°13' W 001°60'0 0.0
2015-Jan-18 10:31N 57°13' W 001°60'0 0.0
2015-Jan-18 09:31N 57°13' W 001°60'0 0.0
2015-Jan-18 08:19N 57°13' W 001°60'0 0.0
2015-Jan-18 07:31N 57°13' W 001°60'  

Dump ship's entire track history